createdAt,value
2018-01-13T00:00:55.083Z,48.6
2018-01-13T00:01:56.986Z,48.6
2018-01-13T00:02:58.326Z,48.7
2018-01-13T00:04:00.223Z,48.5
2018-01-13T00:05:01.541Z,48.7
2018-01-13T00:06:02.859Z,48.5
2018-01-13T00:07:04.754Z,49
2018-01-13T00:08:06.351Z,48.6
2018-01-13T00:09:07.946Z,48.6
2018-01-13T00:10:09.564Z,48.6
2018-01-13T00:11:11.459Z,48.6
2018-01-13T00:12:13.056Z,48.7
2018-01-13T00:13:14.119Z,48.7
2018-01-13T00:14:15.737Z,48.6
2018-01-13T00:15:17.330Z,48.6
2018-01-13T00:16:18.649Z,48.5
2018-01-13T00:17:20.270Z,48.5
2018-01-13T00:18:22.166Z,48.6
2018-01-13T00:19:23.814Z,48.6
2018-01-13T00:20:24.852Z,48.7
2018-01-13T00:21:26.473Z,48.6
2018-01-13T00:22:28.399Z,48.5
2018-01-13T00:23:29.995Z,48.7
2018-01-13T00:24:31.337Z,48.6
2018-01-13T00:25:32.678Z,48.5
2018-01-13T00:26:34.267Z,48.7
2018-01-13T00:27:35.310Z,48.8
2018-01-13T00:28:36.926Z,49
2018-01-13T00:29:38.564Z,48.6
2018-01-13T00:30:40.184Z,48.6
2018-01-13T00:31:42.079Z,48.6
2018-01-13T00:32:43.693Z,48.6
2018-01-13T00:33:45.290Z,48.7
2018-01-13T00:34:46.337Z,48.6
2018-01-13T00:35:47.986Z,48.7
2018-01-13T00:36:49.027Z,48.5
2018-01-13T00:37:50.653Z,48.6
2018-01-13T00:38:52.248Z,48.7
2018-01-13T00:39:54.157Z,48.7
2018-01-13T00:40:55.529Z,48.6
2018-01-13T00:41:57.137Z,48.6
2018-01-13T00:42:58.199Z,49.2
2018-01-13T00:44:00.094Z,48.6
2018-01-13T00:45:01.138Z,48.5
2018-01-13T00:46:02.453Z,48.5
2018-01-13T00:47:04.350Z,48.6
2018-01-13T00:48:05.944Z,48.5
2018-01-13T00:49:07.542Z,48.9
2018-01-13T00:50:08.930Z,48.6
2018-01-13T00:51:10.533Z,48.5
2018-01-13T00:52:11.874Z,48.7
2018-01-13T00:53:12.915Z,48.6
2018-01-13T00:54:14.253Z,48.7
2018-01-13T00:55:15.872Z,48.6
2018-01-13T00:56:17.190Z,48.7
2018-01-13T00:57:18.804Z,48.6
2018-01-13T00:58:20.700Z,48.7
2018-01-13T00:59:22.591Z,48.6
2018-01-13T01:00:24.209Z,48.5
2018-01-13T01:01:26.120Z,48.7
2018-01-13T01:02:27.742Z,48.6
2018-01-13T01:03:28.778Z,48.6
2018-01-13T01:04:37.940Z,48.8
2018-01-13T01:05:39.287Z,48.8
2018-01-13T01:06:41.189Z,48.5
2018-01-13T01:07:43.085Z,48.4
2018-01-13T01:08:44.979Z,48.5
2018-01-13T01:09:46.299Z,48.6
2018-01-13T01:10:47.641Z,48.7
2018-01-13T01:11:49.353Z,48.5
2018-01-13T01:12:50.994Z,48.5
2018-01-13T01:13:52.614Z,48.6
2018-01-13T01:14:54.508Z,48.8
2018-01-13T01:15:56.127Z,48.5
2018-01-13T01:16:58.023Z,48.5
2018-01-13T01:17:59.959Z,48.6
2018-01-13T01:19:01.578Z,48.7
2018-01-13T01:20:02.942Z,48.5
2018-01-13T01:21:04.285Z,48.7
2018-01-13T01:22:05.325Z,48.7
2018-01-13T01:23:06.367Z,48.9
2018-01-13T01:24:08.264Z,48.6
2018-01-13T01:25:09.862Z,48.7
2018-01-13T01:26:11.485Z,48.5
2018-01-13T01:27:13.103Z,48.6
2018-01-13T01:28:14.725Z,48.7
2018-01-13T01:29:16.345Z,48.4
2018-01-13T01:30:17.963Z,48.6
2018-01-13T01:31:19.861Z,48.7
2018-01-13T01:32:21.756Z,48.7
2018-01-13T01:33:23.652Z,48.7
2018-01-13T01:34:25.301Z,48.7
2018-01-13T01:35:27.238Z,48.8
2018-01-13T01:36:29.135Z,48.6
2018-01-13T01:37:30.754Z,48.9
2018-01-13T01:38:32.070Z,48.7
2018-01-13T01:39:33.407Z,48.6
2018-01-13T01:40:35.032Z,48.7
2018-01-13T01:41:36.927Z,48.5
2018-01-13T01:42:38.268Z,48.7
2018-01-13T01:43:39.886Z,48.6
2018-01-13T01:44:41.503Z,48.7
2018-01-13T01:45:42.545Z,48.7
2018-01-13T01:46:43.964Z,48.7
2018-01-13T01:47:45.866Z,48.7
2018-01-13T01:48:47.173Z,48.7
2018-01-13T01:49:48.791Z,48.6
2018-01-13T01:50:50.135Z,48.6
2018-01-13T01:51:51.457Z,48.6
2018-01-13T01:52:53.053Z,48.7
2018-01-13T01:53:54.370Z,48.7
2018-01-13T01:54:55.968Z,48.4
2018-01-13T01:55:57.007Z,48.4
2018-01-13T01:56:58.346Z,48.2
2018-01-13T01:58:00.246Z,48.4
2018-01-13T01:59:01.861Z,48.7
2018-01-13T02:00:03.179Z,48.4
2018-01-13T02:01:05.077Z,48.6
2018-01-13T02:02:06.968Z,48.7
2018-01-13T02:03:08.583Z,48.6
2018-01-13T02:04:09.926Z,48.6
2018-01-13T02:05:11.823Z,48.3
2018-01-13T02:06:13.718Z,48.3
2018-01-13T02:07:15.074Z,48.2
2018-01-13T02:08:16.115Z,48.3
2018-01-13T02:09:18.009Z,48.3
2018-01-13T02:10:19.334Z,48.8
2018-01-13T02:11:21.227Z,48.3
2018-01-13T02:12:22.829Z,48.4
2018-01-13T02:13:24.448Z,48.3
2018-01-13T02:14:25.787Z,48.2
2018-01-13T02:15:27.404Z,48.6
2018-01-13T02:16:29.301Z,48.3
2018-01-13T02:17:31.195Z,48.3
2018-01-13T02:18:32.517Z,48.8
2018-01-13T02:19:34.136Z,48.5
2018-01-13T02:20:35.752Z,48.2
2018-01-13T02:21:37.372Z,48.4
2018-01-13T02:22:38.717Z,48.2
2018-01-13T02:23:39.753Z,48.4
2018-01-13T02:24:41.356Z,48.3
2018-01-13T02:25:42.973Z,48.3
2018-01-13T02:26:44.314Z,48.3
2018-01-13T02:27:46.211Z,48.3
2018-01-13T02:28:47.828Z,48.3
2018-01-13T02:29:49.723Z,48.3
2018-01-13T02:30:51.318Z,48.2
2018-01-13T02:31:52.360Z,48.5
2018-01-13T02:32:54.257Z,48.1
2018-01-13T02:33:56.151Z,48.5
2018-01-13T02:34:57.503Z,48.2
2018-01-13T02:35:59.123Z,48.3
2018-01-13T02:37:00.786Z,48.2
2018-01-13T02:38:02.429Z,48.2
2018-01-13T02:39:04.014Z,48.6
2018-01-13T02:40:05.633Z,48.2
2018-01-13T02:41:07.528Z,48
2018-01-13T02:42:08.868Z,48.2
2018-01-13T02:43:10.485Z,48.2
2018-01-13T02:44:12.103Z,47.9
2018-01-13T02:45:14.002Z,48.3
2018-01-13T02:46:15.344Z,48.2
2018-01-13T02:47:16.964Z,47.9
2018-01-13T02:48:18.004Z,47.8
2018-01-13T02:49:19.621Z,47.9
2018-01-13T02:50:21.238Z,47.9
2018-01-13T02:51:23.132Z,47.9
2018-01-13T02:52:25.030Z,48.3
2018-01-13T02:53:27.075Z,48.1
2018-01-13T02:54:28.673Z,48
2018-01-13T02:55:30.294Z,47.9
2018-01-13T02:56:31.664Z,48
2018-01-13T02:57:33.559Z,48
2018-01-13T02:58:34.897Z,48
2018-01-13T02:59:36.515Z,48.1
2018-01-13T03:00:37.853Z,48.1
2018-01-13T03:01:39.470Z,48.1
2018-01-13T03:02:41.089Z,48.2
2018-01-13T03:03:42.687Z,48.1
2018-01-13T03:04:44.301Z,48
2018-01-13T03:05:45.627Z,48.2
2018-01-13T03:06:46.695Z,48.1
2018-01-13T03:07:48.313Z,48
2018-01-13T03:08:50.214Z,48.3
2018-01-13T03:09:51.833Z,48.1
2018-01-13T03:10:52.872Z,48.1
2018-01-13T03:11:54.489Z,48.3
2018-01-13T03:12:55.804Z,47.9
2018-01-13T03:13:57.715Z,48
2018-01-13T03:14:59.333Z,47.9
2018-01-13T03:16:01.228Z,48
2018-01-13T03:17:02.572Z,47.8
2018-01-13T03:18:04.191Z,47.7
2018-01-13T03:19:05.810Z,48.1
2018-01-13T03:20:07.153Z,48.2
2018-01-13T03:21:08.793Z,47.9
2018-01-13T03:22:10.425Z,48
2018-01-13T03:23:12.044Z,48.2
2018-01-13T03:24:13.939Z,47.7
2018-01-13T03:25:15.835Z,48.1
2018-01-13T03:26:17.453Z,47.9
2018-01-13T03:27:19.069Z,48.3
2018-01-13T03:28:20.663Z,48.2
2018-01-13T03:29:21.987Z,48.3
2018-01-13T03:30:23.054Z,47.7
2018-01-13T03:31:24.948Z,48.2
2018-01-13T03:32:26.842Z,47.9
2018-01-13T03:33:28.741Z,48.2
2018-01-13T03:34:30.056Z,48.1
2018-01-13T03:35:31.399Z,47.7
2018-01-13T03:36:33.035Z,47.7
2018-01-13T03:37:34.649Z,48.2
2018-01-13T03:38:35.990Z,47.7
2018-01-13T03:39:37.609Z,47.7
2018-01-13T03:40:38.951Z,47.7
2018-01-13T03:41:40.270Z,48.3
2018-01-13T03:42:42.196Z,48.1
2018-01-13T03:43:43.535Z,47.8
2018-01-13T03:44:44.878Z,47.7
2018-01-13T03:45:45.636Z,48.2
2018-01-13T03:46:46.977Z,48
2018-01-13T03:47:48.597Z,48
2018-01-13T03:48:50.547Z,47.7
2018-01-13T03:49:52.436Z,47.7
2018-01-13T03:50:54.332Z,48.3
2018-01-13T03:51:55.674Z,47.7
2018-01-13T03:52:57.282Z,47.7
2018-01-13T03:53:58.325Z,47.8
2018-01-13T03:55:00.219Z,47.7
2018-01-13T03:56:01.844Z,48
2018-01-13T03:57:03.741Z,48.4
2018-01-13T03:58:05.360Z,47.7
2018-01-13T03:59:06.700Z,47.8
2018-01-13T04:00:08.596Z,47.7
2018-01-13T04:01:09.914Z,48.2
2018-01-13T04:02:11.533Z,47.7
2018-01-13T04:03:12.853Z,48.2
2018-01-13T04:04:14.749Z,48.2
2018-01-13T04:05:16.639Z,47.7
2018-01-13T04:06:17.984Z,47.8
2018-01-13T04:07:19.879Z,47.7
2018-01-13T04:08:21.496Z,48.1
2018-01-13T04:09:23.405Z,48.1
2018-01-13T04:10:24.749Z,48.4
2018-01-13T04:11:26.364Z,47.7
2018-01-13T04:12:27.685Z,48.1
2018-01-13T04:13:29.003Z,47.9
2018-01-13T04:14:30.620Z,48
2018-01-13T04:15:31.958Z,48.4
2018-01-13T04:16:33.576Z,47.7
2018-01-13T04:17:35.487Z,48.4
2018-01-13T04:18:37.124Z,48.1
2018-01-13T04:19:39.020Z,47.9
2018-01-13T04:20:40.638Z,47.8
2018-01-13T04:21:41.978Z,47.7
2018-01-13T04:22:43.874Z,48
2018-01-13T04:23:45.469Z,48.2
2018-01-13T04:24:47.091Z,47.9
2018-01-13T04:25:48.987Z,47.8
2018-01-13T04:26:50.326Z,48
2018-01-13T04:27:51.944Z,47.7
2018-01-13T04:28:53.837Z,47.8
2018-01-13T04:29:55.433Z,48.3
2018-01-13T04:30:57.053Z,48.1
2018-01-13T04:31:58.371Z,48.3
2018-01-13T04:32:59.988Z,48
2018-01-13T04:34:01.608Z,47.7
2018-01-13T04:35:02.979Z,47.7
2018-01-13T04:36:04.599Z,47.8
2018-01-13T04:37:06.198Z,48.1
2018-01-13T04:38:07.542Z,48
2018-01-13T04:39:09.444Z,47.9
2018-01-13T04:40:10.505Z,48
2018-01-13T04:41:12.126Z,48.1
2018-01-13T04:42:14.021Z,47.9
2018-01-13T04:43:15.639Z,48.1
2018-01-13T04:44:17.254Z,48.1
2018-01-13T04:45:19.149Z,48.1
2018-01-13T04:46:20.769Z,47.7
2018-01-13T04:47:22.106Z,47.9
2018-01-13T04:48:24.001Z,47.6
2018-01-13T04:49:25.899Z,48
2018-01-13T04:50:26.941Z,48.1
2018-01-13T04:51:28.561Z,47.8
2018-01-13T04:52:30.182Z,47.8
2018-01-13T04:53:31.779Z,47.9
2018-01-13T04:54:33.682Z,47.5
2018-01-13T04:55:35.297Z,47.8
2018-01-13T04:56:37.194Z,47.9
2018-01-13T04:57:39.089Z,47.8
2018-01-13T04:58:40.983Z,47.9
2018-01-13T04:59:42.881Z,47.7
2018-01-13T05:00:44.204Z,47.9
2018-01-13T05:01:45.526Z,47.8
2018-01-13T05:02:47.144Z,47.7
2018-01-13T05:03:49.041Z,47.7
2018-01-13T05:04:50.659Z,47.8
2018-01-13T05:05:52.276Z,47.8
2018-01-13T05:06:53.873Z,47.9
2018-01-13T05:07:55.767Z,47.7
2018-01-13T05:08:57.086Z,47.7
2018-01-13T05:09:58.702Z,47.7
2018-01-13T05:11:00.042Z,47.5
2018-01-13T05:12:01.384Z,47.7
2018-01-13T05:13:03.003Z,47.6
2018-01-13T05:14:04.900Z,47.7
2018-01-13T05:15:06.515Z,47.9
2018-01-13T05:16:07.835Z,47.7
2018-01-13T05:17:09.734Z,47.8
2018-01-13T05:18:11.352Z,47.9
2018-01-13T05:19:12.949Z,47.9
2018-01-13T05:20:14.847Z,47.7
2018-01-13T05:21:16.743Z,47.8
2018-01-13T05:22:18.062Z,47.8
2018-01-13T05:23:19.958Z,47.8
2018-01-13T05:24:21.862Z,47.7
2018-01-13T05:25:22.893Z,47.7
2018-01-13T05:26:24.510Z,47.7
2018-01-13T05:27:25.850Z,47.3
2018-01-13T05:28:26.896Z,47.6
2018-01-13T05:29:28.258Z,47.6
2018-01-13T05:30:30.192Z,47.7
2018-01-13T05:31:31.809Z,47.4
2018-01-13T05:32:33.131Z,47.6
2018-01-13T05:33:34.469Z,47.5
2018-01-13T05:34:35.810Z,47.6
2018-01-13T05:35:37.429Z,47.5
2018-01-13T05:36:38.471Z,47.6
2018-01-13T05:37:40.106Z,47.5
2018-01-13T05:38:41.703Z,47.5
2018-01-13T05:39:43.319Z,47.5
2018-01-13T05:40:44.936Z,47.7
2018-01-13T05:41:46.532Z,47.5
2018-01-13T05:42:48.430Z,47.6
2018-01-13T05:43:50.046Z,47.3
2018-01-13T05:44:51.662Z,47.5
2018-01-13T05:45:52.979Z,47.5
2018-01-13T05:46:54.599Z,47.6
2018-01-13T05:47:56.216Z,47.5
2018-01-13T05:48:57.871Z,47.3
2018-01-13T05:49:59.488Z,47.1
2018-01-13T05:51:00.830Z,47.1
2018-01-13T05:52:02.147Z,47.2
2018-01-13T05:53:03.743Z,46.5
2018-01-13T05:54:05.414Z,47
2018-01-13T05:55:06.756Z,47.2
2018-01-13T05:56:08.078Z,47.2
2018-01-13T05:57:09.973Z,47.1
2018-01-13T05:58:11.886Z,47.1
2018-01-13T05:59:13.500Z,47.2
2018-01-13T06:00:15.120Z,47.2
2018-01-13T06:01:16.457Z,47.2
2018-01-13T06:02:18.353Z,47.3
2018-01-13T06:03:19.971Z,47.1
2018-01-13T06:04:21.865Z,47.3
2018-01-13T06:05:23.764Z,47
2018-01-13T06:06:25.659Z,47.2
2018-01-13T06:07:26.981Z,46.8
2018-01-13T06:08:28.580Z,46.9
2018-01-13T06:09:30.179Z,46.9
2018-01-13T06:10:31.780Z,47.1
2018-01-13T06:11:33.096Z,47
2018-01-13T06:12:34.434Z,47
2018-01-13T06:13:35.778Z,47
2018-01-13T06:14:37.673Z,46.9
2018-01-13T06:15:39.290Z,47
2018-01-13T06:16:40.907Z,47
2018-01-13T06:17:42.802Z,46.8
2018-01-13T06:18:44.119Z,47.1
2018-01-13T06:19:45.475Z,46.8
2018-01-13T06:20:47.370Z,47.1
2018-01-13T06:21:48.721Z,46.9
2018-01-13T06:22:50.607Z,47.1
2018-01-13T06:23:52.498Z,47.1
2018-01-13T06:24:54.393Z,47
2018-01-13T06:25:56.012Z,46.9
2018-01-13T06:26:57.351Z,47.1
2018-01-13T06:27:58.971Z,47.1
2018-01-13T06:29:00.594Z,46.9
2018-01-13T06:30:01.913Z,47.2
2018-01-13T06:31:03.229Z,47
2018-01-13T06:32:04.593Z,47.1
2018-01-13T06:33:06.488Z,47.1
2018-01-13T06:34:08.109Z,46.8
2018-01-13T06:35:09.726Z,46.9
2018-01-13T06:36:11.059Z,47
2018-01-13T06:37:12.660Z,46.9
2018-01-13T06:38:14.277Z,47.1
2018-01-13T06:39:16.175Z,46.9
2018-01-13T06:40:17.534Z,46.8
2018-01-13T06:41:19.427Z,46.7
2018-01-13T06:42:21.046Z,46.7
2018-01-13T06:43:22.945Z,46.8
2018-01-13T06:44:24.851Z,46.8
2018-01-13T06:45:26.189Z,46.8
2018-01-13T06:46:27.805Z,46.6
2018-01-13T06:47:28.846Z,46.7
2018-01-13T06:48:30.742Z,46.8
2018-01-13T06:49:32.359Z,46.7
2018-01-13T06:50:33.979Z,46.6
2018-01-13T06:51:35.875Z,46.8
2018-01-13T06:52:37.771Z,46.6
2018-01-13T06:53:39.389Z,46.9
2018-01-13T06:54:40.706Z,46.6
2018-01-13T06:55:42.028Z,46.6
2018-01-13T06:56:43.923Z,46.6
2018-01-13T06:57:45.543Z,46.7
2018-01-13T06:58:46.884Z,46.6
2018-01-13T06:59:48.529Z,46.9
2018-01-13T07:00:49.855Z,46.7
2018-01-13T07:01:51.472Z,46.4
2018-01-13T07:02:52.818Z,46.4
2018-01-13T07:03:54.132Z,46.7
2018-01-13T07:04:56.031Z,46.6
2018-01-13T07:05:57.651Z,46.6
2018-01-13T07:06:59.247Z,46.9
2018-01-13T07:08:00.864Z,46.4
2018-01-13T07:09:02.209Z,46.6
2018-01-13T07:10:04.102Z,46.7
2018-01-13T07:11:05.429Z,46.6
2018-01-13T07:12:07.048Z,46.7
2018-01-13T07:13:08.668Z,46.4
2018-01-13T07:14:10.564Z,46.4
2018-01-13T07:15:11.624Z,46.6
2018-01-13T07:16:12.387Z,46.7
2018-01-13T07:17:14.284Z,46.6
2018-01-13T07:18:15.902Z,46.7
2018-01-13T07:19:16.950Z,46.8
2018-01-13T07:20:18.568Z,46.6
2018-01-13T07:21:19.892Z,46.7
2018-01-13T07:22:21.235Z,46.2
2018-01-13T07:23:22.552Z,46.6
2018-01-13T07:24:24.169Z,46.3
2018-01-13T07:25:25.527Z,46.6
2018-01-13T07:26:26.880Z,46.6
2018-01-13T07:27:28.221Z,46.6
2018-01-13T07:28:29.540Z,46.3
2018-01-13T07:29:31.442Z,46.3
2018-01-13T07:30:32.758Z,46.4
2018-01-13T07:31:34.378Z,46.4
2018-01-13T07:32:36.273Z,46.4
2018-01-13T07:33:38.169Z,46.3
2018-01-13T07:34:39.789Z,46.2
2018-01-13T07:35:41.684Z,46.6
2018-01-13T07:36:43.281Z,46.3
2018-01-13T07:37:44.624Z,46.2
2018-01-13T07:38:45.967Z,46.2
2018-01-13T07:39:47.592Z,46.2
2018-01-13T07:40:49.214Z,46.3
2018-01-13T07:41:50.556Z,46.2
2018-01-13T07:42:51.899Z,46.3
2018-01-13T07:43:53.517Z,46.2
2018-01-13T07:44:55.416Z,46.3
2018-01-13T07:45:57.012Z,46.2
2018-01-13T07:46:58.910Z,46.3
2018-01-13T07:48:00.507Z,46.3
2018-01-13T07:49:02.126Z,46.4
2018-01-13T07:50:03.743Z,46.2
2018-01-13T07:51:04.783Z,46.3
2018-01-13T07:52:06.127Z,46.4
2018-01-13T07:53:07.535Z,46.3
2018-01-13T07:54:09.488Z,46.6
2018-01-13T07:55:11.107Z,46.4
2018-01-13T07:56:12.448Z,46.2
2018-01-13T07:57:14.065Z,46.6
2018-01-13T07:58:15.962Z,46.4
2018-01-13T07:59:17.857Z,46.5
2018-01-13T08:00:19.760Z,46.5
2018-01-13T08:01:21.658Z,46.4
2018-01-13T08:02:22.997Z,46.1
2018-01-13T08:03:24.892Z,46.3
2018-01-13T08:04:26.515Z,46.3
2018-01-13T08:05:27.862Z,46.2
2018-01-13T08:06:29.764Z,46.2
2018-01-13T08:07:31.389Z,46
2018-01-13T08:08:32.732Z,46.1
2018-01-13T08:09:34.328Z,46
2018-01-13T08:10:36.225Z,46.3
2018-01-13T08:11:37.291Z,46.1
2018-01-13T08:12:38.909Z,46.1
2018-01-13T08:13:40.528Z,46
2018-01-13T08:14:42.150Z,46.1
2018-01-13T08:15:43.495Z,46.2
2018-01-13T08:16:44.538Z,46
2018-01-13T08:17:45.858Z,45.9
2018-01-13T08:18:47.199Z,46.1
2018-01-13T08:19:48.797Z,46.1
2018-01-13T08:20:49.842Z,45.9
2018-01-13T08:21:51.742Z,45.9
2018-01-13T08:22:53.343Z,45.8
2018-01-13T08:23:54.940Z,45.9
2018-01-13T08:24:56.003Z,46
2018-01-13T08:25:57.349Z,45.9
2018-01-13T08:26:59.250Z,46.3
2018-01-13T08:28:00.566Z,45.9
2018-01-13T08:29:01.888Z,45.8
2018-01-13T08:30:03.209Z,46.3
2018-01-13T08:31:05.105Z,45.9
2018-01-13T08:32:06.725Z,45.9
2018-01-13T08:33:08.340Z,45.9
2018-01-13T08:34:09.959Z,45.8
2018-01-13T08:35:11.557Z,45.6
2018-01-13T08:36:13.457Z,45.7
2018-01-13T08:37:15.076Z,45.9
2018-01-13T08:38:16.421Z,46
2018-01-13T08:39:18.040Z,45.8
2018-01-13T08:40:19.660Z,45.9
2018-01-13T08:41:21.556Z,45.9
2018-01-13T08:42:23.178Z,45.9
2018-01-13T08:43:24.795Z,46
2018-01-13T08:44:26.460Z,46
2018-01-13T08:45:27.800Z,45.8
2018-01-13T08:46:29.118Z,45.8
2018-01-13T08:47:30.720Z,45.7
2018-01-13T08:48:32.617Z,45.7
2018-01-13T08:49:34.512Z,46.1
2018-01-13T08:50:36.110Z,45.7
2018-01-13T08:51:38.009Z,45.7
2018-01-13T08:52:39.630Z,45.7
2018-01-13T08:53:41.230Z,45.8
2018-01-13T08:54:42.829Z,45.8
2018-01-13T08:55:44.148Z,45.8
2018-01-13T08:56:45.762Z,45.7
2018-01-13T08:57:47.360Z,45.7
2018-01-13T08:58:48.981Z,45.7
2018-01-13T08:59:50.316Z,45.7
2018-01-13T09:00:52.217Z,45.8
2018-01-13T09:01:53.839Z,45.6
2018-01-13T09:02:55.457Z,45.8
2018-01-13T09:03:56.802Z,45.5
2018-01-13T09:04:58.422Z,45.8
2018-01-13T09:06:00.048Z,45.8
2018-01-13T09:07:01.668Z,45.7
2018-01-13T09:08:03.286Z,45.8
2018-01-13T09:09:04.905Z,45.8
2018-01-13T09:10:06.557Z,45.6
2018-01-13T09:11:07.593Z,45.6
2018-01-13T09:12:09.491Z,45.3
2018-01-13T09:13:11.113Z,45.6
2018-01-13T09:14:13.011Z,45.6
2018-01-13T09:15:14.628Z,45.6
2018-01-13T09:16:16.250Z,45.7
2018-01-13T09:17:17.591Z,45.8
2018-01-13T09:18:18.935Z,45.8
2018-01-13T09:19:20.276Z,45.5
2018-01-13T09:20:21.892Z,45.7
2018-01-13T09:21:23.233Z,45.3
2018-01-13T09:22:24.580Z,45.9
2018-01-13T09:23:26.473Z,45.9
2018-01-13T09:24:27.523Z,45.9
2018-01-13T09:25:28.863Z,45.7
2018-01-13T09:26:29.910Z,45.8
2018-01-13T09:27:31.533Z,45.9
2018-01-13T09:28:33.133Z,45.8
2018-01-13T09:29:35.029Z,45.4
2018-01-13T09:30:36.938Z,45.9
2018-01-13T09:31:38.535Z,45.9
2018-01-13T09:32:40.437Z,45.4
2018-01-13T09:33:41.753Z,45.5
2018-01-13T09:34:43.353Z,45.5
2018-01-13T09:35:44.674Z,45.8
2018-01-13T09:36:46.570Z,45.9
2018-01-13T09:37:48.466Z,45.4
2018-01-13T09:38:50.086Z,45.3
2018-01-13T09:39:51.709Z,45.7
2018-01-13T09:40:53.048Z,45.2
2018-01-13T09:41:54.949Z,45.3
2018-01-13T09:42:56.846Z,45.4
2018-01-13T09:43:58.742Z,45.2
2018-01-13T09:45:00.637Z,45.2
2018-01-13T09:46:02.295Z,45.2
2018-01-13T09:47:03.636Z,45.3
2018-01-13T09:48:04.953Z,45.5
2018-01-13T09:49:05.997Z,45.2
2018-01-13T09:50:07.666Z,45.1
2018-01-13T09:51:09.005Z,45.3
2018-01-13T09:52:10.116Z,45.2
2018-01-13T09:53:11.766Z,45.2
2018-01-13T09:54:13.385Z,45.5
2018-01-13T09:55:15.282Z,45.2
2018-01-13T09:56:17.181Z,45.4
2018-01-13T09:57:18.778Z,45.4
2018-01-13T09:58:20.402Z,45.3
2018-01-13T09:59:22.020Z,45.4
2018-01-13T10:00:23.647Z,45.5
2018-01-13T10:01:25.267Z,45.3
2018-01-13T10:02:26.889Z,45.4
2018-01-13T10:03:28.875Z,45.3
2018-01-13T10:04:30.173Z,45.3
2018-01-13T10:05:31.517Z,45.1
2018-01-13T10:06:33.134Z,45.3
2018-01-13T10:07:35.030Z,45.3
2018-01-13T10:08:36.649Z,45.1
2018-01-13T10:09:38.274Z,45.3
2018-01-13T10:10:39.934Z,45.1
2018-01-13T10:11:41.547Z,45.1
2018-01-13T10:12:43.447Z,45.1
2018-01-13T10:13:45.065Z,45.1
2018-01-13T10:14:45.828Z,45.3
2018-01-13T10:15:47.148Z,45
2018-01-13T10:16:48.766Z,45.3
2018-01-13T10:17:50.386Z,45.3
2018-01-13T10:18:51.454Z,45.4
2018-01-13T10:19:52.795Z,45.2
2018-01-13T10:20:54.116Z,45.3
2018-01-13T10:21:55.736Z,45.2
2018-01-13T10:22:57.074Z,45.1
2018-01-13T10:23:58.397Z,45
2018-01-13T10:25:00.295Z,45
2018-01-13T10:26:01.617Z,45
2018-01-13T10:27:03.538Z,45.1
2018-01-13T10:28:05.469Z,45.3
2018-01-13T10:29:06.534Z,45.1
2018-01-13T10:30:08.157Z,45
2018-01-13T10:31:09.779Z,45
2018-01-13T10:32:11.124Z,45.1
2018-01-13T10:33:13.019Z,44.9
2018-01-13T10:34:14.341Z,45
2018-01-13T10:35:15.660Z,45.1
2018-01-13T10:36:17.557Z,45
2018-01-13T10:37:19.180Z,45
2018-01-13T10:38:20.220Z,45.1
2018-01-13T10:39:22.125Z,45.1
2018-01-13T10:40:24.022Z,45.1
2018-01-13T10:41:25.361Z,45
2018-01-13T10:42:27.261Z,45.1
2018-01-13T10:43:28.597Z,45.2
2018-01-13T10:44:29.922Z,45
2018-01-13T10:45:31.312Z,45.1
2018-01-13T10:46:32.377Z,45.1
2018-01-13T10:47:34.001Z,45.1
2018-01-13T10:48:35.897Z,45.1
2018-01-13T10:49:37.549Z,45
2018-01-13T10:50:39.446Z,45.1
2018-01-13T10:51:41.064Z,45.1
2018-01-13T10:52:42.684Z,45.1
2018-01-13T10:53:44.581Z,45.1
2018-01-13T10:54:46.182Z,45.1
2018-01-13T10:55:48.078Z,45.1
2018-01-13T10:56:49.402Z,45
2018-01-13T10:57:51.024Z,45.1
2018-01-13T10:58:52.921Z,45
2018-01-13T10:59:54.519Z,45.1
2018-01-13T11:00:56.416Z,45.1
2018-01-13T11:01:57.735Z,45.1
2018-01-13T11:02:59.357Z,45.1
2018-01-13T11:04:01.245Z,45.1
2018-01-13T11:05:02.865Z,45.1
2018-01-13T11:06:04.025Z,45.1
2018-01-13T11:07:05.349Z,45.1
2018-01-13T11:08:06.670Z,45.1
2018-01-13T11:09:08.270Z,45.1
2018-01-13T11:10:09.885Z,45.2
2018-01-13T11:11:11.505Z,45.1
2018-01-13T11:12:12.938Z,45.1
2018-01-13T11:13:14.829Z,45.2
2018-01-13T11:14:16.149Z,45.2
2018-01-13T11:15:17.820Z,45.1
2018-01-13T11:16:19.443Z,44.9
2018-01-13T11:17:20.781Z,45
2018-01-13T11:18:22.399Z,45
2018-01-13T11:19:23.722Z,44.8
2018-01-13T11:20:25.618Z,44.9
2018-01-13T11:21:26.947Z,45
2018-01-13T11:22:28.545Z,44.9
2018-01-13T11:23:30.440Z,44.8
2018-01-13T11:24:31.504Z,45
2018-01-13T11:25:32.846Z,45
2018-01-13T11:26:34.471Z,44.9
2018-01-13T11:27:36.090Z,44.8
2018-01-13T11:28:37.997Z,44.9
2018-01-13T11:29:39.617Z,45
2018-01-13T11:30:40.661Z,45
2018-01-13T11:31:42.284Z,44.9
2018-01-13T11:32:44.177Z,45
2018-01-13T11:33:45.798Z,45
2018-01-13T11:34:47.398Z,44.9
2018-01-13T11:35:49.295Z,44.9
2018-01-13T11:36:51.188Z,45
2018-01-13T11:37:53.087Z,45
2018-01-13T11:38:54.984Z,45
2018-01-13T11:39:56.922Z,44.9
2018-01-13T11:40:58.236Z,45
2018-01-13T11:42:00.133Z,45.1
2018-01-13T11:43:01.456Z,45.1
2018-01-13T11:44:03.357Z,45.1
2018-01-13T11:45:04.970Z,45.1
2018-01-13T11:46:06.866Z,45
2018-01-13T11:47:08.486Z,45.1
2018-01-13T11:48:09.829Z,44.9
2018-01-13T11:49:11.454Z,45.1
2018-01-13T11:50:13.348Z,44.9
2018-01-13T11:51:15.245Z,44.9
2018-01-13T11:52:16.843Z,44.9
2018-01-13T11:53:18.185Z,44.7
2018-01-13T11:54:19.805Z,44.9
2018-01-13T11:55:21.739Z,45.1
2018-01-13T11:56:23.356Z,45.1
2018-01-13T11:57:24.677Z,45.1
2018-01-13T11:58:25.721Z,45
2018-01-13T11:59:27.063Z,44.9
2018-01-13T12:00:28.962Z,45
2018-01-13T12:01:30.279Z,45.1
2018-01-13T12:02:31.912Z,44.7
2018-01-13T12:03:33.527Z,45
2018-01-13T12:04:34.910Z,44.7
2018-01-13T12:05:36.841Z,44.8
2018-01-13T12:06:38.181Z,44.7
2018-01-13T12:07:39.807Z,45
2018-01-13T12:08:41.427Z,44.6
2018-01-13T12:09:43.047Z,44.6
2018-01-13T12:10:44.383Z,44.8
2018-01-13T12:11:45.722Z,44.8
2018-01-13T12:12:47.620Z,45.1
2018-01-13T12:13:49.518Z,44.9
2018-01-13T12:14:51.144Z,44.8
2018-01-13T12:15:52.457Z,44.6
2018-01-13T12:16:53.505Z,45
2018-01-13T12:17:55.118Z,45
2018-01-13T12:18:56.736Z,44.7
2018-01-13T12:19:58.064Z,44.9
2018-01-13T12:20:59.385Z,44.6
2018-01-13T12:22:00.723Z,44.6
2018-01-13T12:23:02.043Z,44.6
2018-01-13T12:24:03.938Z,44.8
2018-01-13T12:25:05.286Z,45
2018-01-13T12:26:06.899Z,44.5
2018-01-13T12:27:08.794Z,44.8
2018-01-13T12:28:10.121Z,44.6
2018-01-13T12:29:11.458Z,45
2018-01-13T12:30:13.353Z,44.5
2018-01-13T12:31:14.951Z,44.6
2018-01-13T12:32:16.549Z,44.8
2018-01-13T12:33:17.890Z,44.6
2018-01-13T12:34:19.826Z,44.3
2018-01-13T12:35:21.441Z,44.9
2018-01-13T12:36:23.339Z,44.3
2018-01-13T12:37:24.679Z,44.7
2018-01-13T12:38:26.302Z,44.6
2018-01-13T12:39:27.901Z,44.6
2018-01-13T12:40:29.524Z,44.6
2018-01-13T12:41:30.912Z,44.7
2018-01-13T12:42:32.255Z,44.6
2018-01-13T12:43:33.878Z,44.7
2018-01-13T12:44:35.490Z,44.6
2018-01-13T12:45:37.109Z,44.8
2018-01-13T12:46:38.726Z,44.6
2018-01-13T12:47:40.624Z,44.1
2018-01-13T12:48:42.243Z,44
2018-01-13T12:49:43.867Z,44.5
2018-01-13T12:50:45.763Z,44.4
2018-01-13T12:51:47.082Z,44.5
2018-01-13T12:52:48.425Z,44.4
2018-01-13T12:53:50.024Z,44.5
2018-01-13T12:54:51.642Z,44.2
2018-01-13T12:55:52.961Z,44.5
2018-01-13T12:56:54.306Z,44.3
2018-01-13T12:57:55.932Z,44.3
2018-01-13T12:58:56.985Z,44.4
2018-01-13T12:59:58.920Z,44.3
2018-01-13T13:01:00.814Z,44.3
2018-01-13T13:02:02.166Z,44.3
2018-01-13T13:03:04.055Z,44.4
2018-01-13T13:04:05.674Z,44.3
2018-01-13T13:05:07.012Z,44.3
2018-01-13T13:06:08.628Z,44.2
2018-01-13T13:07:10.225Z,44.2
2018-01-13T13:08:11.898Z,44.5
2018-01-13T13:09:12.912Z,44.3
2018-01-13T13:10:14.812Z,44.5
2018-01-13T13:11:16.431Z,44.3
2018-01-13T13:12:18.040Z,44.5
2018-01-13T13:13:19.677Z,44.3
2018-01-13T13:14:20.717Z,44.3
2018-01-13T13:15:22.340Z,44.5
2018-01-13T13:16:24.238Z,44
2018-01-13T13:17:25.857Z,44.4
2018-01-13T13:18:27.181Z,44.1
2018-01-13T13:19:29.073Z,44.4
2018-01-13T13:20:30.124Z,44.2
2018-01-13T13:21:32.018Z,44.3
2018-01-13T13:22:33.059Z,44.3
2018-01-13T13:23:34.960Z,44.3
2018-01-13T13:24:36.304Z,44.3
2018-01-13T13:25:37.909Z,44.5
2018-01-13T13:26:39.907Z,44.2
2018-01-13T13:27:40.949Z,44.2
2018-01-13T13:28:42.266Z,44.2
2018-01-13T13:29:44.166Z,44.3
2018-01-13T13:30:45.210Z,44.5
2018-01-13T13:31:46.828Z,44.3
2018-01-13T13:32:48.725Z,44.5
2018-01-13T13:33:50.345Z,44.5
2018-01-13T13:34:52.243Z,44.4
2018-01-13T13:35:53.866Z,44.4
2018-01-13T13:36:55.767Z,44.2
2018-01-13T13:37:57.087Z,44.5
2018-01-13T13:38:58.680Z,44.1
2018-01-13T13:39:59.725Z,44.2
2018-01-13T13:41:01.348Z,44.1
2018-01-13T13:42:02.962Z,44.4
2018-01-13T13:43:04.301Z,44.6
2018-01-13T13:44:05.620Z,44.2
2018-01-13T13:45:07.244Z,44.4